Time;durP1;ratioP1;P1;durP2;ratioP2;P2;SDS_P1;SDS_P2;PMS_P1;PMS_P2;Temp;Humidity;BMP_temperature;BMP_pressure;BME280_temperature;BME280_humidity;BME280_pressure;Samples;Min_cycle;Max_cycle;Signal;HPM_P1;HPM_P2
2022/08/29 00:00:15;;;;;;;15.32;13.70;;;16.70;99.90;;;;;;4990531;28;20397;-78
2022/08/29 00:02:42;;;;;;;16.27;14.23;;;16.70;99.90;;;;;;4990690;28;20389;-77
2022/08/29 00:05:09;;;;;;;12.48;10.65;;;16.70;99.90;;;;;;4990618;28;20456;-79
2022/08/29 00:07:36;;;;;;;13.07;11.85;;;16.70;99.90;;;;;;4990628;28;20906;-78
2022/08/29 00:10:05;;;;;;;12.88;11.68;;;16.80;99.90;;;;;;4993868;28;20376;-79
2022/08/29 00:12:32;;;;;;;12.38;11.07;;;16.90;99.90;;;;;;4994751;28;20387;-79
2022/08/29 00:14:59;;;;;;;12.63;11.48;;;17.10;99.90;;;;;;4994646;28;20373;-78
2022/08/29 00:17:26;;;;;;;11.32;10.13;;;17.20;99.90;;;;;;4994286;28;20397;-78
2022/08/29 00:19:54;;;;;;;11.13;9.90;;;17.40;99.90;;;;;;4960398;28;20784;-79
2022/08/29 00:22:21;;;;;;;11.60;10.50;;;17.50;99.90;;;;;;4997238;28;20443;-78
2022/08/29 00:24:48;;;;;;;11.90;10.67;;;17.30;99.90;;;;;;4997305;28;20484;-79
2022/08/29 00:27:15;;;;;;;11.65;10.05;;;17.30;99.90;;;;;;4999822;28;20733;-79
2022/08/29 00:29:42;;;;;;;12.38;11.10;;;17.50;99.90;;;;;;4999006;28;20388;-79
2022/08/29 00:32:09;;;;;;;11.55;10.38;;;17.50;99.90;;;;;;4996930;28;20385;-77
2022/08/29 00:34:36;;;;;;;14.25;11.68;;;17.60;99.90;;;;;;4996447;28;20392;-78
2022/08/29 00:37:03;;;;;;;14.13;11.30;;;17.60;99.90;;;;;;4995933;28;20404;-77
2022/08/29 00:39:30;;;;;;;12.77;11.27;;;17.70;99.90;;;;;;4995934;28;20424;-79
2022/08/29 00:41:58;;;;;;;11.45;10.32;;;17.70;99.90;;;;;;4995621;28;20388;-79
2022/08/29 00:44:25;;;;;;;10.35;9.30;;;17.80;99.90;;;;;;4994894;28;20404;-78
2022/08/29 00:46:57;;;;;;;11.18;9.98;;;17.90;99.90;;;;;;4994873;28;20460;-78
2022/08/29 00:49:48;;;;;;;11.50;10.10;;;18.00;99.90;;;;;;4994881;28;20373;-78
2022/08/29 00:52:38;;;;;;;11.88;10.50;;;18.20;99.90;;;;;;4994897;28;20499;-79
2022/08/29 00:55:12;;;;;;;11.07;9.90;;;18.40;99.90;;;;;;4994992;28;20373;-78
2022/08/29 00:57:45;;;;;;;11.73;10.45;;;18.50;99.90;;;;;;4995234;28;20734;-78
2022/08/29 01:00:14;;;;;;;11.70;10.52;;;18.50;99.90;;;;;;4994993;28;20401;-77
2022/08/29 01:02:41;;;;;;;12.77;9.98;;;18.60;99.90;;;;;;5008754;28;20377;-77
2022/08/29 01:05:12;;;;;;;11.27;9.68;;;18.60;99.90;;;;;;5014522;28;20399;-76
2022/08/29 01:07:39;;;;;;;10.52;9.35;;;18.60;99.90;;;;;;5015346;28;20369;-78
2022/08/29 01:10:08;;;;;;;10.48;9.48;;;18.70;99.90;;;;;;5015131;28;20395;-77
2022/08/29 01:12:36;;;;;;;11.52;9.77;;;18.80;99.90;;;;;;5013940;28;20721;-79
2022/08/29 01:15:09;;;;;;;11.07;9.70;;;19.10;99.90;;;;;;4997199;28;20405;-78
2022/08/29 01:17:47;;;;;;;10.60;9.60;;;19.20;99.90;;;;;;4994662;28;20468;-78
2022/08/29 01:20:20;;;;;;;11.43;9.50;;;19.40;99.90;;;;;;4994543;28;20504;-78
2022/08/29 01:23:03;;;;;;;11.40;10.23;;;19.30;99.90;;;;;;4981362;28;20385;-77
2022/08/29 01:25:35;;;;;;;13.10;10.20;;;19.20;99.90;;;;;;4993968;28;20789;-78
2022/08/29 01:28:28;;;;;;;11.95;9.90;;;19.30;99.90;;;;;;4993520;28;20733;-78
2022/08/29 01:30:58;;;;;;;11.05;9.82;;;19.60;99.90;;;;;;4987138;28;20416;-78
2022/08/29 01:33:33;;;;;;;11.43;9.85;;;19.90;99.90;;;;;;4993203;28;20385;-78
2022/08/29 01:36:00;;;;;;;12.55;9.43;;;20.20;99.90;;;;;;4993125;28;20381;-78
2022/08/29 01:38:29;;;;;;;10.27;9.00;;;20.50;99.90;;;;;;4993390;28;20377;-78
2022/08/29 01:40:58;;;;;;;11.48;8.30;;;20.60;99.90;;;;;;4992798;28;20404;-78
2022/08/29 01:43:27;;;;;;;11.13;9.40;;;20.70;99.90;;;;;;4992850;28;20449;-78
2022/08/29 01:45:54;;;;;;;11.25;9.55;;;20.60;99.90;;;;;;4992728;28;20776;-79
2022/08/29 01:48:22;;;;;;;12.10;9.85;;;20.60;99.90;;;;;;4992794;28;20373;-78
2022/08/29 01:50:49;;;;;;;9.68;8.60;;;20.70;99.90;;;;;;4975685;28;20425;-79
2022/08/29 01:53:17;;;;;;;10.17;8.20;;;21.20;99.90;;;;;;4992554;28;20722;-78
2022/08/29 01:55:44;;;;;;;10.18;8.40;;;21.00;99.90;;;;;;4992946;28;20488;-79
2022/08/29 01:58:11;;;;;;;10.68;8.70;;;21.00;99.90;;;;;;4992490;28;20717;-79
2022/08/29 02:00:38;;;;;;;9.63;8.50;;;20.70;99.90;;;;;;4992192;28;20420;-78
2022/08/29 02:03:06;;;;;;;9.88;8.35;;;20.70;99.90;;;;;;4992662;28;20444;-79
2022/08/29 02:05:33;;;;;;;11.30;7.78;;;20.60;99.90;;;;;;4992090;28;20432;-79
2022/08/29 02:08:01;;;;;;;14.77;10.77;;;20.60;99.90;;;;;;4993469;28;20427;-78
2022/08/29 02:10:29;;;;;;;10.25;7.30;;;20.60;99.90;;;;;;4993228;28;20388;-79
2022/08/29 02:12:58;;;;;;;8.38;6.78;;;20.20;99.90;;;;;;4992438;28;20491;-79
2022/08/29 02:15:25;;;;;;;8.40;6.85;;;20.40;99.90;;;;;;4992674;28;20389;-80
2022/08/29 02:17:52;;;;;;;9.60;7.00;;;20.60;99.90;;;;;;4992597;28;20396;-79
2022/08/29 02:20:20;;;;;;;8.38;7.03;;;20.60;99.90;;;;;;4992476;28;20463;-79
2022/08/29 02:22:47;;;;;;;10.18;7.05;;;20.60;99.90;;;;;;4992324;28;20400;-79
2022/08/29 02:27:59;;;;;;;7.47;6.13;;;20.50;99.90;;;;;;4993482;28;20364;-79
2022/08/29 02:30:26;;;;;;;8.53;6.43;;;20.50;99.90;;;;;;4963853;28;20397;-80
2022/08/29 02:32:54;;;;;;;7.28;6.30;;;20.50;99.90;;;;;;4993294;28;20879;-79
2022/08/29 02:35:21;;;;;;;7.65;6.55;;;20.30;99.90;;;;;;4993529;28;20393;-79
2022/08/29 02:37:56;;;;;;;8.93;6.50;;;20.20;99.90;;;;;;5006337;28;20393;-79
2022/08/29 02:40:26;;;;;;;6.70;6.10;;;20.20;99.90;;;;;;4956068;28;20739;-79
2022/08/29 02:42:56;;;;;;;7.28;6.32;;;20.20;99.90;;;;;;4979380;28;20390;-79
2022/08/29 02:45:24;;;;;;;7.97;5.90;;;20.30;99.90;;;;;;4946821;29;20388;-78
2022/08/29 02:47:52;;;;;;;6.80;6.10;;;20.50;99.90;;;;;;4967189;28;20406;-78
2022/08/29 02:50:20;;;;;;;8.18;6.22;;;20.70;99.90;;;;;;4970601;28;20383;-78
2022/08/29 02:52:48;;;;;;;6.68;5.97;;;20.80;99.90;;;;;;4970574;28;20434;-79
2022/08/29 02:55:18;;;;;;;7.77;6.20;;;20.90;99.90;;;;;;4970423;28;20855;-80
2022/08/29 02:57:46;;;;;;;7.68;6.13;;;20.70;99.90;;;;;;4970368;28;20395;-80
2022/08/29 03:00:20;;;;;;;7.88;6.38;;;20.50;99.90;;;;;;4970226;28;20415;-78
2022/08/29 03:02:49;;;;;;;6.82;6.13;;;20.30;99.90;;;;;;4970283;28;20779;-79
2022/08/29 03:05:17;;;;;;;6.80;6.10;;;20.10;99.90;;;;;;4969896;28;20430;-79
2022/08/29 03:07:45;;;;;;;6.90;6.20;;;20.00;99.90;;;;;;4971020;28;20402;-79
2022/08/29 03:10:12;;;;;;;7.82;6.05;;;20.10;99.90;;;;;;4970061;28;20387;-78
2022/08/29 03:12:40;;;;;;;8.18;6.10;;;20.20;99.90;;;;;;4972819;28;20389;-79
2022/08/29 03:15:08;;;;;;;6.63;5.95;;;20.30;99.90;;;;;;4971026;28;20386;-80
2022/08/29 03:17:36;;;;;;;7.10;5.82;;;20.60;99.90;;;;;;4979398;28;20543;-80
2022/08/29 03:20:04;;;;;;;7.10;5.85;;;20.80;99.90;;;;;;4991294;28;20404;-80
2022/08/29 03:22:32;;;;;;;7.05;5.70;;;20.90;99.90;;;;;;4990928;28;20388;-79
2022/08/29 03:25:03;;;;;;;7.00;5.70;;;20.80;99.90;;;;;;4991278;28;20369;-80
2022/08/29 03:27:32;;;;;;;7.82;5.72;;;20.70;99.90;;;;;;4991290;28;20381;-79
2022/08/29 03:29:59;;;;;;;7.85;5.60;;;20.40;99.90;;;;;;4991281;28;20384;-79
2022/08/29 03:32:28;;;;;;;6.00;5.40;;;20.10;99.90;;;;;;4991452;28;20848;-80
2022/08/29 03:34:55;;;;;;;6.57;5.70;;;19.80;99.90;;;;;;4991147;28;20385;-80
2022/08/29 03:37:22;;;;;;;7.20;5.88;;;19.70;99.90;;;;;;4991074;28;20408;-80
2022/08/29 03:39:49;;;;;;;6.68;5.38;;;19.70;99.90;;;;;;4991325;28;20436;-81
2022/08/29 03:42:17;;;;;;;6.63;5.38;;;19.50;99.90;;;;;;4976244;28;20749;-79
2022/08/29 03:44:44;;;;;;;5.97;5.20;;;19.40;99.90;;;;;;4980573;28;20391;-80
2022/08/29 03:47:12;;;;;;;7.82;5.35;;;19.40;99.90;;;;;;5000716;28;20407;-80
2022/08/29 03:49:39;;;;;;;6.80;5.20;;;19.40;99.90;;;;;;5000823;28;20476;-81
2022/08/29 03:52:08;;;;;;;7.37;5.70;;;19.50;99.90;;;;;;4999597;28;20792;-80
2022/08/29 03:54:38;;;;;;;6.20;5.60;;;19.40;99.90;;;;;;4998467;28;20396;-80
2022/08/29 03:57:06;;;;;;;6.60;5.43;;;19.40;99.90;;;;;;4996861;28;20380;-80
2022/08/29 03:59:34;;;;;;;6.10;5.50;;;19.50;99.90;;;;;;4996589;28;20440;-80
2022/08/29 04:02:01;;;;;;;6.43;5.13;;;19.60;99.90;;;;;;4995726;28;20385;-80
2022/08/29 04:07:13;;;;;;;7.53;5.30;;;19.50;99.90;;;;;;4995645;28;20886;-80
2022/08/29 04:09:41;;;;;;;6.07;5.30;;;19.50;99.90;;;;;;4995374;28;20800;-80
2022/08/29 04:12:10;;;;;;;7.22;5.20;;;19.60;99.90;;;;;;4994940;28;20408;-80
2022/08/29 04:14:38;;;;;;;7.47;5.60;;;19.60;99.90;;;;;;4995526;28;20443;-80
2022/08/29 04:17:09;;;;;;;10.73;5.95;;;19.60;99.90;;;;;;4995349;28;21010;-80
2022/08/29 04:19:36;;;;;;;8.93;5.70;;;19.60;99.90;;;;;;4994874;28;20416;-81
2022/08/29 04:22:05;;;;;;;7.05;5.70;;;19.60;99.90;;;;;;4994447;28;20392;-81
2022/08/29 04:24:33;;;;;;;10.53;6.93;;;19.60;99.90;;;;;;4994802;28;20860;-79
2022/08/29 04:27:00;;;;;;;10.88;7.15;;;19.50;99.90;;;;;;4994559;28;20380;-79
2022/08/29 04:29:27;;;;;;;11.23;6.80;;;19.30;99.90;;;;;;4994413;28;20412;-78
2022/08/29 04:31:54;;;;;;;10.70;6.95;;;19.30;99.90;;;;;;4994759;28;20404;-80
2022/08/29 04:34:22;;;;;;;7.57;6.78;;;19.30;99.90;;;;;;4994434;28;20385;-79
2022/08/29 04:36:49;;;;;;;8.35;6.60;;;19.20;99.90;;;;;;4994171;28;20376;-80
2022/08/29 04:39:16;;;;;;;10.48;6.50;;;19.00;99.90;;;;;;4994111;28;20389;-80
2022/08/29 04:41:43;;;;;;;8.13;6.57;;;18.80;99.90;;;;;;4996289;28;20397;-78
2022/08/29 04:44:12;;;;;;;9.05;6.20;;;18.70;99.90;;;;;;4995310;28;20788;-80
2022/08/29 04:46:40;;;;;;;9.15;6.72;;;18.60;99.90;;;;;;4994678;28;20377;-80
2022/08/29 04:49:08;;;;;;;11.40;6.65;;;18.60;99.90;;;;;;4994634;28;20396;-80
2022/08/29 04:51:35;;;;;;;10.13;6.60;;;18.50;99.90;;;;;;4995421;28;20383;-80
2022/08/29 04:54:05;;;;;;;10.70;7.13;;;18.50;99.90;;;;;;4993218;28;20378;-81
2022/08/29 04:56:32;;;;;;;8.95;6.47;;;18.40;99.90;;;;;;4994063;28;20924;-80
2022/08/29 04:59:00;;;;;;;9.00;6.85;;;18.50;99.90;;;;;;4977816;28;20381;-81
2022/08/29 05:01:28;;;;;;;7.80;6.55;;;18.40;99.90;;;;;;4994745;28;20424;-80
2022/08/29 05:03:56;;;;;;;11.63;9.73;;;18.50;99.90;;;;;;4994390;28;20385;-80
2022/08/29 05:06:24;;;;;;;15.33;10.57;;;18.50;99.90;;;;;;4994079;28;20533;-80
2022/08/29 05:08:52;;;;;;;9.63;6.20;;;18.50;99.90;;;;;;4994076;28;20435;-80
2022/08/29 05:11:20;;;;;;;11.23;6.80;;;18.40;99.90;;;;;;4994398;28;20384;-79
2022/08/29 05:13:48;;;;;;;10.98;6.60;;;18.40;99.90;;;;;;4994275;28;20389;-79
2022/08/29 05:16:17;;;;;;;9.43;6.40;;;18.30;99.90;;;;;;4992753;28;20393;-79
2022/08/29 05:18:47;;;;;;;7.95;6.57;;;18.20;99.90;;;;;;4994281;28;20392;-80
2022/08/29 05:21:25;;;;;;;10.07;7.10;;;18.20;99.90;;;;;;4993985;28;20405;-80
2022/08/29 05:23:55;;;;;;;10.23;7.10;;;18.20;99.90;;;;;;4993973;28;20384;-80
2022/08/29 05:26:22;;;;;;;9.35;7.30;;;18.20;99.90;;;;;;4995058;28;20415;-79
2022/08/29 05:28:50;;;;;;;9.18;7.03;;;18.20;99.90;;;;;;4993888;28;20787;-85
2022/08/29 05:31:17;;;;;;;8.95;6.85;;;18.20;99.90;;;;;;4985488;28;20393;-80
2022/08/29 05:33:44;;;;;;;9.57;6.90;;;18.20;99.90;;;;;;4988442;28;20447;-80
2022/08/29 05:36:12;;;;;;;8.57;6.82;;;18.20;99.90;;;;;;4994666;28;20385;-81
2022/08/29 05:38:41;;;;;;;8.77;6.65;;;18.20;99.90;;;;;;4994548;28;20385;-82
2022/08/29 05:41:09;;;;;;;9.20;6.95;;;18.20;99.90;;;;;;4992444;28;20420;-83
2022/08/29 05:43:36;;;;;;;14.15;7.82;;;18.30;99.90;;;;;;4993916;28;20385;-82
2022/08/29 05:46:06;;;;;;;27.70;8.77;;;18.30;99.90;;;;;;4993914;28;20385;-83
2022/08/29 05:48:34;;;;;;;27.58;8.98;;;18.20;99.90;;;;;;4994007;28;20482;-81
2022/08/29 05:51:01;;;;;;;20.75;9.00;;;18.10;99.90;;;;;;4993432;28;20392;-82
2022/08/29 05:53:29;;;;;;;23.65;9.23;;;17.90;99.90;;;;;;4975996;28;20389;-81
2022/08/29 05:55:56;;;;;;;17.25;8.60;;;17.80;99.90;;;;;;4993164;28;20764;-81
2022/08/29 05:58:23;;;;;;;17.20;8.98;;;17.70;99.90;;;;;;4993216;28;20381;-82
2022/08/29 06:00:50;;;;;;;19.02;9.10;;;17.60;99.90;;;;;;4976114;28;20776;-81
2022/08/29 06:03:17;;;;;;;19.08;9.10;;;17.70;99.90;;;;;;4993233;28;20533;-81
2022/08/29 06:05:52;;;;;;;17.20;9.07;;;17.70;99.90;;;;;;4992216;28;20774;-81
2022/08/29 06:08:22;;;;;;;12.88;8.13;;;17.70;99.90;;;;;;4992532;28;20857;-81
2022/08/29 06:10:49;;;;;;;13.57;8.43;;;17.60;99.90;;;;;;4992227;28;20936;-81
2022/08/29 06:13:16;;;;;;;14.60;8.35;;;17.60;99.90;;;;;;4992797;28;20456;-82
2022/08/29 06:15:44;;;;;;;15.85;8.95;;;17.60;99.90;;;;;;4992714;28;20408;-83
2022/08/29 06:18:12;;;;;;;11.98;8.63;;;17.50;99.90;;;;;;4971547;28;20730;-82
2022/08/29 06:20:40;;;;;;;12.57;8.73;;;17.50;99.90;;;;;;4993078;28;20451;-86
2022/08/29 06:23:08;;;;;;;12.40;9.98;;;17.40;99.90;;;;;;4993383;28;20435;-82
2022/08/29 06:25:37;;;;;;;16.05;10.27;;;17.30;99.90;;;;;;4992716;28;20400;-81
2022/08/29 06:28:05;;;;;;;14.30;10.82;;;17.20;99.90;;;;;;4993007;28;20459;-81
2022/08/29 06:30:33;;;;;;;11.63;10.43;;;17.10;99.90;;;;;;4992446;28;20385;-82
2022/08/29 06:33:01;;;;;;;15.82;10.63;;;17.10;99.90;;;;;;4980354;28;20865;-81
2022/08/29 06:35:28;;;;;;;16.10;11.02;;;17.00;99.90;;;;;;4992271;28;20793;-80
2022/08/29 06:37:56;;;;;;;13.73;10.88;;;17.10;99.90;;;;;;4992619;28;20391;-81
2022/08/29 06:40:23;;;;;;;12.60;11.30;;;17.10;99.90;;;;;;4974503;28;20408;-82
2022/08/29 06:42:50;;;;;;;16.02;11.90;;;17.10;99.90;;;;;;4992832;28;20472;-82
2022/08/29 06:45:19;;;;;;;22.05;14.63;;;17.00;99.90;;;;;;4992800;28;20473;-80
2022/08/29 06:47:47;;;;;;;25.88;16.38;;;17.00;99.90;;;;;;4992541;28;20920;-82
2022/08/29 06:50:18;;;;;;;26.55;15.45;;;16.90;99.90;;;;;;4992492;28;20384;-80
2022/08/29 06:52:45;;;;;;;35.15;16.63;;;16.80;99.90;;;;;;4992417;28;20385;-81
2022/08/29 06:55:12;;;;;;;36.03;17.65;;;16.60;99.90;;;;;;4992119;28;20385;-82
2022/08/29 06:57:44;;;;;;;23.90;15.37;;;16.40;99.90;;;;;;4992962;28;20381;-80
2022/08/29 07:00:14;;;;;;;26.73;15.32;;;16.40;99.90;;;;;;4993586;28;20837;-80
2022/08/29 07:02:41;;;;;;;21.83;15.30;;;16.30;99.90;;;;;;4994512;28;20439;-79
2022/08/29 07:05:14;;;;;;;22.40;15.45;;;16.20;99.90;;;;;;4997963;28;20462;-80
2022/08/29 07:07:41;;;;;;;19.13;15.93;;;16.10;99.90;;;;;;4995542;28;20420;-86
2022/08/29 07:10:11;;;;;;;24.13;15.90;;;16.00;99.90;;;;;;4994498;28;20396;-79
2022/08/29 07:12:38;;;;;;;21.07;16.37;;;15.90;99.90;;;;;;4993350;28;20391;-80
2022/08/29 07:15:07;;;;;;;22.52;16.13;;;15.90;99.90;;;;;;4993109;28;20384;-81
2022/08/29 07:17:34;;;;;;;19.67;16.30;;;15.80;99.90;;;;;;4992548;28;20409;-81
2022/08/29 07:20:02;;;;;;;21.70;17.05;;;15.70;99.90;;;;;;4992318;28;20404;-81
2022/08/29 07:22:29;;;;;;;20.80;17.57;;;15.70;99.90;;;;;;4992575;28;20385;-82
2022/08/29 07:24:56;;;;;;;21.30;17.38;;;15.60;99.90;;;;;;4992337;28;20415;-80
2022/08/29 07:27:23;;;;;;;24.10;18.00;;;15.60;99.90;;;;;;4991771;28;20400;-81
2022/08/29 07:29:50;;;;;;;22.23;18.60;;;15.60;99.90;;;;;;4987431;28;20435;-79
2022/08/29 07:32:18;;;;;;;24.95;19.70;;;15.60;99.90;;;;;;4992139;28;20383;-81
2022/08/29 07:34:45;;;;;;;21.87;19.47;;;15.60;99.90;;;;;;4957495;28;20479;-80
2022/08/29 07:37:12;;;;;;;25.13;20.13;;;15.50;99.90;;;;;;4991044;28;20395;-79
2022/08/29 07:39:39;;;;;;;27.15;21.15;;;15.50;99.90;;;;;;4991781;28;20436;-79
2022/08/29 07:42:06;;;;;;;25.95;22.05;;;15.50;99.90;;;;;;4991101;28;20401;-81
2022/08/29 07:44:34;;;;;;;30.43;21.63;;;15.50;99.90;;;;;;4982875;28;20377;-81
2022/08/29 07:47:01;;;;;;;29.95;23.38;;;15.40;99.90;;;;;;4991307;28;21241;-81
2022/08/29 07:49:31;;;;;;;26.95;21.90;;;15.40;99.90;;;;;;4994878;28;20459;-82
2022/08/29 07:51:59;;;;;;;26.95;21.90;;;15.50;99.90;;;;;;4992527;28;20385;-85
2022/08/29 07:54:26;;;;;;;27.98;21.45;;;15.50;99.90;;;;;;4985807;28;20380;-82
2022/08/29 07:56:53;;;;;;;29.88;21.60;;;15.50;99.90;;;;;;4991325;28;20424;-84
2022/08/29 07:59:21;;;;;;;27.58;21.92;;;15.50;99.90;;;;;;4982501;28;20397;-83
2022/08/29 08:01:48;;;;;;;27.08;22.05;;;15.50;99.90;;;;;;4986679;28;20423;-83
2022/08/29 08:04:15;;;;;;;29.27;22.07;;;15.40;99.90;;;;;;4990216;28;20392;-83
2022/08/29 08:06:43;;;;;;;28.05;23.25;;;15.40;99.90;;;;;;4991214;28;20919;-88
2022/08/29 08:09:13;;;;;;;29.35;24.40;;;15.40;99.90;;;;;;4989188;28;20392;-82
2022/08/29 08:11:40;;;;;;;29.85;23.58;;;15.50;99.90;;;;;;4991912;28;20377;-83
2022/08/29 08:14:08;;;;;;;36.40;24.90;;;15.40;99.90;;;;;;4991298;28;20861;-82
2022/08/29 08:16:37;;;;;;;29.63;26.13;;;15.40;99.90;;;;;;4992241;28;20562;-86
2022/08/29 08:19:04;;;;;;;35.70;29.58;;;15.30;99.90;;;;;;4990285;28;20397;-83
2022/08/29 08:21:31;;;;;;;33.53;27.67;;;15.30;99.90;;;;;;4990171;28;20420;-87
2022/08/29 08:23:59;;;;;;;33.00;26.00;;;15.30;99.90;;;;;;4990896;28;20400;-89
2022/08/29 08:26:26;;;;;;;34.55;28.02;;;15.20;99.90;;;;;;4985348;28;20932;-84
2022/08/29 08:28:53;;;;;;;35.03;27.00;;;15.20;99.90;;;;;;4990660;28;20489;-90
2022/08/29 08:31:22;;;;;;;34.30;27.80;;;15.10;99.90;;;;;;4994310;28;20855;-88
2022/08/29 08:33:49;;;;;;;82.95;73.25;;;15.10;99.90;;;;;;4994327;28;20468;-81
2022/08/29 08:36:23;;;;;;;52.95;47.33;;;15.10;99.90;;;;;;4976136;28;20397;-81
2022/08/29 08:38:51;;;;;;;35.45;29.67;;;15.10;99.90;;;;;;4991851;28;20400;-81
2022/08/29 08:41:52;;;;;;;38.17;31.30;;;15.10;99.90;;;;;;4993687;28;20405;-81
2022/08/29 08:44:22;;;;;;;38.40;34.05;;;15.00;99.90;;;;;;4993933;28;20408;-82
2022/08/29 08:46:59;;;;;;;35.35;28.27;;;15.00;99.90;;;;;;4994258;28;20741;-81
2022/08/29 08:49:44;;;;;;;37.00;27.88;;;15.00;99.90;;;;;;4993843;28;20435;-81
2022/08/29 08:52:33;;;;;;;35.85;28.48;;;15.00;99.90;;;;;;4993613;28;21239;-81
2022/08/29 08:55:08;;;;;;;34.83;27.83;;;14.90;99.90;;;;;;4993503;28;20373;-81
2022/08/29 08:57:45;;;;;;;37.03;29.27;;;14.90;99.90;;;;;;4985519;28;20910;-78
2022/08/29 09:00:12;;;;;;;36.70;29.42;;;14.80;99.90;;;;;;4989940;28;20404;-82
2022/08/29 09:03:07;;;;;;;37.03;29.42;;;14.90;99.90;;;;;;4993321;28;20400;-81
2022/08/29 09:05:34;;;;;;;36.78;29.35;;;14.90;99.90;;;;;;4975369;28;20441;-81
2022/08/29 09:08:16;;;;;;;36.80;29.13;;;14.80;99.90;;;;;;4992632;28;20431;-82
2022/08/29 09:10:56;;;;;;;32.97;28.13;;;14.80;99.90;;;;;;4993446;28;20399;-81
2022/08/29 09:13:28;;;;;;;39.37;29.70;;;14.80;99.90;;;;;;4993253;28;20748;-82
2022/08/29 09:16:00;;;;;;;38.80;30.75;;;14.90;99.90;;;;;;4992899;28;20392;-82
2022/08/29 09:18:27;;;;;;;37.37;30.40;;;14.80;99.90;;;;;;4974966;28;20396;-81
2022/08/29 09:20:55;;;;;;;40.55;31.27;;;14.90;99.90;;;;;;4992616;28;20408;-82
2022/08/29 09:23:35;;;;;;;36.13;30.35;;;14.90;99.90;;;;;;4987442;28;20879;-81
2022/08/29 09:26:02;;;;;;;36.67;28.63;;;14.80;99.90;;;;;;4992311;28;20464;-81
2022/08/29 09:28:29;;;;;;;37.45;29.85;;;14.80;99.90;;;;;;4992620;28;20884;-80
2022/08/29 09:31:23;;;;;;;36.47;30.08;;;14.70;99.90;;;;;;4981996;28;20479;-81
2022/08/29 09:33:57;;;;;;;38.83;30.83;;;14.70;99.90;;;;;;4993079;28;20369;-81
2022/08/29 09:36:40;;;;;;;34.88;28.52;;;14.70;99.90;;;;;;4992500;28;20400;-80
2022/08/29 09:39:27;;;;;;;35.70;30.00;;;14.70;99.90;;;;;;4993485;28;20377;-79
2022/08/29 09:42:13;;;;;;;37.08;29.05;;;14.70;99.90;;;;;;4990049;28;20492;-81
2022/08/29 09:44:50;;;;;;;39.90;31.73;;;14.60;99.90;;;;;;4993043;28;20964;-80
2022/08/29 09:47:35;;;;;;;32.50;26.75;;;14.60;99.90;;;;;;4993102;28;20432;-80
2022/08/29 09:50:02;;;;;;;37.80;29.58;;;14.50;99.90;;;;;;4991057;28;20935;-81
2022/08/29 09:52:30;;;;;;;28.53;24.93;;;14.50;99.90;;;;;;4975735;28;20438;-80
2022/08/29 09:55:14;;;;;;;34.90;28.88;;;14.60;99.90;;;;;;4992336;28;20402;-81
2022/08/29 09:57:48;;;;;;;34.67;27.80;;;14.50;99.90;;;;;;4992994;28;20373;-80
2022/08/29 10:00:23;;;;;;;39.67;31.50;;;14.40;99.90;;;;;;4975771;28;20431;-80
2022/08/29 10:02:54;;;;;;;42.67;32.83;;;14.40;99.90;;;;;;4989029;28;20418;-80
2022/08/29 10:05:44;;;;;;;43.15;33.28;;;14.40;99.90;;;;;;4990958;28;20405;-81
2022/08/29 10:08:36;;;;;;;43.45;34.47;;;14.40;99.90;;;;;;4970148;28;20403;-81
2022/08/29 10:11:25;;;;;;;45.58;34.75;;;14.30;99.90;;;;;;4993018;28;20393;-79
2022/08/29 10:14:12;;;;;;;38.67;31.47;;;14.30;99.90;;;;;;4996896;28;20451;-81
2022/08/29 10:18:19;;;;;;;38.65;30.48;;;14.30;99.90;;;;;;5000207;28;20407;-81
2022/08/29 10:19:42;;;;;;;38.80;30.73;;;14.30;99.90;;;;;;4994064;28;20377;-78
2022/08/29 10:22:29;;;;;;;35.45;29.83;;;14.20;99.90;;;;;;5002948;28;20401;-80
2022/08/29 10:24:59;;;;;;;35.47;29.42;;;14.20;99.90;;;;;;5005537;28;20385;-78
2022/08/29 10:27:29;;;;;;;37.13;29.70;;;14.10;99.90;;;;;;5008497;28;20408;-80
2022/08/29 10:30:02;;;;;;;33.90;28.13;;;14.10;99.90;;;;;;5009919;28;20392;-80
2022/08/29 10:32:57;;;;;;;35.25;28.55;;;14.00;99.90;;;;;;5005618;28;20405;-80
2022/08/29 10:35:28;;;;;;;36.83;29.98;;;14.00;99.90;;;;;;4998143;28;20393;-79
2022/08/29 10:38:32;;;;;;;37.17;29.63;;;13.90;99.90;;;;;;5005695;28;20389;-80
2022/08/29 10:41:14;;;;;;;37.63;31.27;;;13.90;99.90;;;;;;5001192;28;20408;-78
2022/08/29 10:44:21;;;;;;;41.95;33.88;;;13.90;99.90;;;;;;4996351;28;20397;-79
2022/08/29 10:47:38;;;;;;;41.90;35.83;;;13.80;99.90;;;;;;4992339;28;20439;-80
2022/08/29 10:50:14;;;;;;;40.50;35.03;;;13.80;99.90;;;;;;4910405;29;20452;-80
2022/08/29 10:52:56;;;;;;;43.37;35.73;;;13.80;99.90;;;;;;4912693;29;20407;-79
2022/08/29 10:55:23;;;;;;;44.45;35.42;;;13.70;99.90;;;;;;4912907;29;20502;-79
2022/08/29 10:58:30;;;;;;;45.88;36.45;;;13.60;99.90;;;;;;4912844;29;20419;-78
2022/08/29 11:01:14;;;;;;;42.33;35.23;;;13.60;99.90;;;;;;4905045;29;20462;-79
2022/08/29 11:03:46;;;;;;;44.75;36.42;;;13.50;99.90;;;;;;4909357;29;20396;-79
2022/08/29 11:06:25;;;;;;;44.70;34.95;;;13.50;99.90;;;;;;4911681;29;20483;-79
2022/08/29 11:09:22;;;;;;;39.08;33.67;;;13.40;99.90;;;;;;4911653;29;20407;-80
2022/08/29 11:12:20;;;;;;;52.65;39.30;;;13.30;99.90;;;;;;4906188;29;20418;-80
2022/08/29 11:15:08;;;;;;;44.22;36.72;;;13.30;99.90;;;;;;4912206;29;20403;-80
2022/08/29 11:17:40;;;;;;;43.15;35.65;;;13.30;99.90;;;;;;4911065;29;20412;-79
2022/08/29 11:20:18;;;;;;;46.85;37.13;;;13.20;99.90;;;;;;4911247;29;21005;-79
2022/08/29 11:23:12;;;;;;;47.70;36.65;;;13.20;99.90;;;;;;4911067;29;20407;-79
2022/08/29 11:25:42;;;;;;;41.47;34.67;;;13.10;99.90;;;;;;4946850;28;20399;-80
2022/08/29 11:28:28;;;;;;;46.92;38.78;;;13.20;99.90;;;;;;4990734;28;20415;-80
2022/08/29 11:31:36;;;;;;;49.22;40.03;;;13.10;99.90;;;;;;4990762;28;21069;-80
2022/08/29 11:34:09;;;;;;;45.97;37.10;;;13.10;99.90;;;;;;4909160;29;20427;-79
2022/08/29 11:36:47;;;;;;;46.90;38.63;;;13.10;99.90;;;;;;4912130;29;20391;-80
2022/08/29 11:39:20;;;;;;;49.95;39.42;;;13.10;99.90;;;;;;4911651;29;20398;-79
2022/08/29 11:41:54;;;;;;;56.45;44.08;;;13.00;99.90;;;;;;4911212;29;20434;-79
2022/08/29 11:44:33;;;;;;;55.33;42.17;;;13.10;99.90;;;;;;4907647;29;20399;-78
2022/08/29 11:47:00;;;;;;;55.00;41.93;;;13.00;99.90;;;;;;4911158;29;20407;-78
2022/08/29 11:49:34;;;;;;;50.05;39.53;;;12.90;99.90;;;;;;4907689;29;20392;-79
2022/08/29 11:52:24;;;;;;;48.53;37.97;;;12.90;99.90;;;;;;4911945;29;20379;-79
2022/08/29 11:54:55;;;;;;;49.92;39.40;;;12.80;99.90;;;;;;4909083;29;20427;-79
2022/08/29 11:57:32;;;;;;;56.22;43.50;;;12.80;99.90;;;;;;4911643;29;20504;-79
2022/08/29 12:00:22;;;;;;;50.63;39.83;;;12.80;99.90;;;;;;4911221;29;20764;-78
2022/08/29 12:02:49;;;;;;;48.65;38.30;;;12.80;99.90;;;;;;4911699;29;20580;-78
2022/08/29 12:05:16;;;;;;;48.00;38.20;;;12.70;99.90;;;;;;4914688;29;20952;-79
2022/08/29 12:08:11;;;;;;;48.30;38.57;;;12.60;99.90;;;;;;4915227;29;20443;-80
2022/08/29 12:10:54;;;;;;;48.07;39.30;;;12.60;99.90;;;;;;4950152;28;20512;-79
2022/08/29 12:13:43;;;;;;;46.58;38.10;;;12.60;99.90;;;;;;4992693;28;20392;-79
2022/08/29 12:16:12;;;;;;;43.13;35.78;;;12.60;99.90;;;;;;4986824;28;20451;-79
2022/08/29 12:18:44;;;;;;;51.10;39.50;;;12.60;99.90;;;;;;4974241;28;20808;-78
2022/08/29 12:21:35;;;;;;;55.40;41.20;;;12.60;99.90;;;;;;4992616;28;20463;-80
2022/08/29 12:24:06;;;;;;;56.97;43.22;;;12.60;99.90;;;;;;4993931;28;20384;-79
2022/08/29 12:26:46;;;;;;;60.47;44.13;;;12.60;99.90;;;;;;4993236;28;20393;-79
2022/08/29 12:29:41;;;;;;;58.13;42.30;;;12.70;99.90;;;;;;4993607;28;20400;-79
2022/08/29 12:32:25;;;;;;;55.15;39.28;;;12.70;99.90;;;;;;4992614;28;20403;-79
2022/08/29 12:35:02;;;;;;;47.67;37.72;;;12.70;99.90;;;;;;4993866;28;20411;-80
2022/08/29 12:37:59;;;;;;;49.83;39.87;;;12.70;99.90;;;;;;4993703;28;20392;-79
2022/08/29 12:41:10;;;;;;;51.85;41.30;;;12.70;99.90;;;;;;4992863;28;20797;-79
2022/08/29 12:43:43;;;;;;;44.33;35.58;;;12.70;99.90;;;;;;4911505;29;20423;-78
2022/08/29 12:46:25;;;;;;;48.17;38.95;;;12.70;99.90;;;;;;4913287;29;20796;-79
2022/08/29 12:49:24;;;;;;;42.83;34.80;;;12.80;99.90;;;;;;4914367;29;20406;-79
2022/08/29 12:51:57;;;;;;;45.72;38.38;;;12.70;99.90;;;;;;4910271;29;20480;-79
2022/08/29 12:54:40;;;;;;;48.33;39.28;;;12.70;99.90;;;;;;4914281;29;20920;-79
2022/08/29 12:57:18;;;;;;;48.28;38.33;;;12.60;99.90;;;;;;4916041;29;20895;-78
2022/08/29 12:59:52;;;;;;;50.78;41.70;;;12.60;99.90;;;;;;4913574;29;20849;-78
2022/08/29 13:02:37;;;;;;;50.95;40.50;;;12.60;99.90;;;;;;4913153;29;20770;-79
2022/08/29 13:05:21;;;;;;;47.03;40.17;;;12.50;99.90;;;;;;4908098;29;20931;-80